Mammoth, AZ (85618)

03:37 PM MST on Februar 27, 2015 (GMT -0700)
KAZMAMMO2 | Change Station
CLOSE
Current Station
Personligvejrstation
Location: Mammoth, AZ
Højde: 2600 ft
Vejrstationer i nærheden

Elev 2600 ft 32.70 °N, 110.65 °W | Updated 4 seconds ago

Klart
Klart
74.1 ° F
Føles som 76 ° F
N
0.0
Vind Skiftende Vind SV
Gusts 0.0 mph

I dag
Høj -- | Lav -- ° F
--% Risiko for nedbør
I går
Høj -- | Lav -- ° F
Precip. -- tommer
6:52 AM 6:18 PM
Tiltagende måne, 72% visible
Tryk 29.63 tommer
Sigtbarhed 10.0 mil
Skyer Klart
Varmeindeks 76 ° F
Dugpunkt 35 ° F
Luftfugtighed 24%
Regnmængde 0.00 tommer
Snedybde Ikke tilgængelig.
UV 5 fra 12
Pollen 9.10 fra 12
Luftkvalitet Ikke tilgængelig.
Flu Activity Ikke tilgængelig.
METAR KDMA 272158Z AUTO 25016G23KT 10SM CLR 23/M04 A2970 RMK AO2 SLP032 T02271041 $

More Conditions Fewer Conditions

Tryk 29.63 tommer
Sigtbarhed 10.0 mil
Skyer Klart
Varmeindeks 76 ° F
Dugpunkt 35 ° F
Luftfugtighed 24%
Regnmængde 0.00 tommer
Snedybde Ikke tilgængelig.
UV 5 fra 12
Pollen 9.10 fra 12
Luftkvalitet Ikke tilgængelig.
Flu Activity Ikke tilgængelig.
METAR KDMA 272158Z AUTO 25016G23KT 10SM CLR 23/M04 A2970 RMK AO2 SLP032 T02271041 $

More Conditions Fewer Conditions

10-Day Weather Forecast

Almanac

Astronomi

Feb. 27, 2015 Opgang Nedgang
Faktisktidspunkt
Civilttusmørke
Nautisktusmørke
Astronomisktusmørke
Måne
Synligtlys’ længde
Dagens længde
Tomorrow will be .
, % of the Moon is Illuminated

Ekstremer i dag

State Highs State Lows

Community

WunderPhotos

Upload Photos

1,800,852 Billeder uploaded!

WunderBlogs® & News

Nearby

Luftkvalitet

  Luftkvalitet AQ-indeks Forureningskilder
Not available.

Snedybde

Station Depth Højde

Jordskælvsaktivitet

By Distance Mag. Time & Date
Minimum magnitude displayed is 2.5.

Kystnære vandtemperaturer

Sted Temperatur

Vejrstationer i nærheden